• °C
  • Pobieranie danych...
wx


PRINT OUT SECTION, show »

METAR EPBY 261130Z 28012KT 9999 OVC011 01/M01 Q1006=

METAR EPGD 261130Z 30013KT 9999 BKN012 01/M02 Q1004 R11/290095 =

METAR EPKK 261130Z 23012KT 9999 FEW015 BKN023 M00/M02 Q1009
R25/51//95 =

METAR EPKT 261130Z 26013KT 9999 -SN FEW006 BKN014 OVC017 M00/M02
Q1009 =

METAR EPLB 261130Z 28017KT 9999 DRSN FEW016 BKN018 OVC025 01/M02
Q1004 R25/599591 =

METAR EPLL 261130Z 27011KT 6000 -SHGS SCT004 BKN011CB 00/M02 Q1007 =

METAR EPMO 261130Z 27015KT 9999 SCT015 BKN022 01/M01 Q1005 =

METAR EPPO 261130Z 30010KT 9999 BKN011 01/M01 Q1009 =

METAR EPRA 261130Z NIL=

METAR EPRZ 261130Z 27016KT 9999 -SN BKN013 BKN038 00/M02 Q1007 RESN
R27/52//95 =

METAR EPSC 261130Z 26007KT 230V290 7000 SCT005 OVC007 01/M00 Q1009 =

METAR EPSY 261130Z 28008KT 250V330 4200 -SN BR BKN008 OVC014 01/M01
Q1002 R01/590293=

METAR EPWA 261130Z 27015KT 9999 SCT017 BKN029 01/M02 Q1005 R33/2///95
NOSIG=

METAR EPWR 261130Z 27011KT CAVOK 01/M02 Q1010 R11/19//95 =

METAR EPZG 261130Z 23011KT 6000 SCT010 01/M01 Q1010 =
 METAR EPLL
Lokalizacja:EPLL Łódź
Czas:11:30 UTC
Średni kierunek wiatru:270 °
Średnia prędkość wiatru:11 węzłów
Widzialność:6 kilometrów
Opad:krupa śnieżna/lodowa lub drobny grad
Intensywność:słaba
Pierwsza warstwa chmur:3/8 do 4/8, wysokość podstawy 400 FT
Druga warstwa chmur:5/8 do 7/8, wysokość podstawy 1100 FT
Chmury konwekcyjne :cumulonimbus
Temperatura powietrza:0 °C
Temperatura punktu rosy:-2 °C
Ciśnienie QNH:1007 hPa



IMGW-PIB Sites